sensor_id;sensor_type;location;lat;lon;timestamp;temperature;humidity
39021;DHT22;25188;51.958;5.842;2023-04-01T00:02:24;10.00;99.90
39021;DHT22;25188;51.958;5.842;2023-04-01T00:04:50;10.00;99.90
39021;DHT22;25188;51.958;5.842;2023-04-01T00:07:15;9.90;99.90
39021;DHT22;25188;51.958;5.842;2023-04-01T00:09:41;9.90;99.90
39021;DHT22;25188;51.958;5.842;2023-04-01T00:12:07;9.90;99.90
39021;DHT22;25188;51.958;5.842;2023-04-01T00:14:32;9.90;99.90
39021;DHT22;25188;51.958;5.842;2023-04-01T00:16:58;10.00;99.90
39021;DHT22;25188;51.958;5.842;2023-04-01T00:19:23;9.90;99.90
39021;DHT22;25188;51.958;5.842;2023-04-01T00:21:49;10.00;99.90
39021;DHT22;25188;51.958;5.842;2023-04-01T00:24:15;10.00;99.90
39021;DHT22;25188;51.958;5.842;2023-04-01T00:26:41;10.00;99.90
39021;DHT22;25188;51.958;5.842;2023-04-01T00:29:07;9.90;99.90
39021;DHT22;25188;51.958;5.842;2023-04-01T00:31:33;10.00;99.90
39021;DHT22;25188;51.958;5.842;2023-04-01T00:33:59;10.00;99.90
39021;DHT22;25188;51.958;5.842;2023-04-01T00:36:24;10.00;99.90
39021;DHT22;25188;51.958;5.842;2023-04-01T00:38:50;10.00;99.90
39021;DHT22;25188;51.958;5.842;2023-04-01T00:41:17;10.00;99.90
39021;DHT22;25188;51.958;5.842;2023-04-01T00:43:47;10.00;99.90
39021;DHT22;25188;51.958;5.842;2023-04-01T00:46:13;10.00;99.90
39021;DHT22;25188;51.958;5.842;2023-04-01T00:48:45;10.00;99.90
39021;DHT22;25188;51.958;5.842;2023-04-01T00:51:39;10.00;99.90
39021;DHT22;25188;51.958;5.842;2023-04-01T00:54:06;10.10;99.90
39021;DHT22;25188;51.958;5.842;2023-04-01T00:56:50;10.10;99.90
39021;DHT22;25188;51.958;5.842;2023-04-01T00:59:23;10.10;99.90
39021;DHT22;25188;51.958;5.842;2023-04-01T01:01:50;10.10;99.90
39021;DHT22;25188;51.958;5.842;2023-04-01T01:04:42;10.10;99.90
39021;DHT22;25188;51.958;5.842;2023-04-01T01:07:26;10.10;99.90
39021;DHT22;25188;51.958;5.842;2023-04-01T01:10:18;10.10;99.90
39021;DHT22;25188;51.958;5.842;2023-04-01T01:18:19;10.10;99.90
39021;DHT22;25188;51.958;5.842;2023-04-01T01:27:14;10.20;99.90
39021;DHT22;25188;51.958;5.842;2023-04-01T01:35:24;10.20;99.90
39021;DHT22;25188;51.958;5.842;2023-04-01T01:37:55;10.20;99.90
39021;DHT22;25188;51.958;5.842;2023-04-01T01:40:22;10.20;99.90
39021;DHT22;25188;51.958;5.842;2023-04-01T01:42:53;10.20;99.90
39021;DHT22;25188;51.958;5.842;2023-04-01T01:45:21;10.20;99.90
39021;DHT22;25188;51.958;5.842;2023-04-01T01:47:49;10.20;99.90
39021;DHT22;25188;51.958;5.842;2023-04-01T01:50:17;10.20;99.90
39021;DHT22;25188;51.958;5.842;2023-04-01T01:52:43;10.20;99.90
39021;DHT22;25188;51.958;5.842;2023-04-01T01:57:53;10.20;99.90
39021;DHT22;25188;51.958;5.842;2023-04-01T02:00:20;10.20;99.90
39021;DHT22;25188;51.958;5.842;2023-04-01T02:02:48;10.20;99.90
39021;DHT22;25188;51.958;5.842;2023-04-01T02:05:21;10.20;99.90
39021;DHT22;25188;51.958;5.842;2023-04-01T02:07:49;10.10;99.90
39021;DHT22;25188;51.958;5.842;2023-04-01T02:10:21;10.10;99.90
39021;DHT22;25188;51.958;5.842;2023-04-01T02:12:48;10.10;99.90
39021;DHT22;25188;51.958;5.842;2023-04-01T02:15:15;10.10;99.90
39021;DHT22;25188;51.958;5.842;2023-04-01T02:17:44;10.10;99.90
39021;DHT22;25188;51.958;5.842;2023-04-01T02:22:44;10.10;99.90
39021;DHT22;25188;51.958;5.842;2023-04-01T02:25:14;10.10;99.90
39021;DHT22;25188;51.958;5.842;2023-04-01T02:27:43;10.10;99.90
39021;DHT22;25188;51.958;5.842;2023-04-01T02:30:11;10.10;99.90
39021;DHT22;25188;51.958;5.842;2023-04-01T02:32:38;10.10;99.90
39021;DHT22;25188;51.958;5.842;2023-04-01T02:35:09;10.10;99.90
39021;DHT22;25188;51.958;5.842;2023-04-01T02:37:36;10.10;99.90
39021;DHT22;25188;51.958;5.842;2023-04-01T02:40:03;10.00;99.90
39021;DHT22;25188;51.958;5.842;2023-04-01T02:42:32;10.00;99.90
39021;DHT22;25188;51.958;5.842;2023-04-01T02:44:57;10.00;99.90
39021;DHT22;25188;51.958;5.842;2023-04-01T02:47:23;10.00;99.90
39021;DHT22;25188;51.958;5.842;2023-04-01T02:49:49;10.00;99.90
39021;DHT22;25188;51.958;5.842;2023-04-01T02:52:14;10.00;99.90
39021;DHT22;25188;51.958;5.842;2023-04-01T02:54:40;10.00;99.90
39021;DHT22;25188;51.958;5.842;2023-04-01T02:57:06;10.00;99.90
39021;DHT22;25188;51.958;5.842;2023-04-01T02:59:32;10.00;99.90
39021;DHT22;25188;51.958;5.842;2023-04-01T03:01:57;10.00;99.90
39021;DHT22;25188;51.958;5.842;2023-04-01T03:04:23;10.00;99.90
39021;DHT22;25188;51.958;5.842;2023-04-01T03:06:49;10.00;99.90
39021;DHT22;25188;51.958;5.842;2023-04-01T03:09:15;10.00;99.90
39021;DHT22;25188;51.958;5.842;2023-04-01T03:11:41;10.00;99.90
39021;DHT22;25188;51.958;5.842;2023-04-01T03:14:07;10.00;99.90
39021;DHT22;25188;51.958;5.842;2023-04-01T03:16:32;10.00;99.90
39021;DHT22;25188;51.958;5.842;2023-04-01T03:18:58;10.00;99.90
39021;DHT22;25188;51.958;5.842;2023-04-01T03:21:25;10.00;99.90
39021;DHT22;25188;51.958;5.842;2023-04-01T03:23:51;10.00;99.90
39021;DHT22;25188;51.958;5.842;2023-04-01T03:26:17;10.00;99.90
39021;DHT22;25188;51.958;5.842;2023-04-01T03:28:43;9.90;99.90
39021;DHT22;25188;51.958;5.842;2023-04-01T03:31:09;9.90;99.90
39021;DHT22;25188;51.958;5.842;2023-04-01T03:33:35;9.90;99.90
39021;DHT22;25188;51.958;5.842;2023-04-01T03:36:01;9.90;99.90
39021;DHT22;25188;51.958;5.842;2023-04-01T03:38:28;9.90;99.90
39021;DHT22;25188;51.958;5.842;2023-04-01T03:40:54;10.00;99.90
39021;DHT22;25188;51.958;5.842;2023-04-01T03:43:19;9.90;99.90
39021;DHT22;25188;51.958;5.842;2023-04-01T03:45:47;9.90;99.90
39021;DHT22;25188;51.958;5.842;2023-04-01T03:48:13;9.90;99.90
39021;DHT22;25188;51.958;5.842;2023-04-01T03:50:40;9.90;99.90
39021;DHT22;25188;51.958;5.842;2023-04-01T03:53:06;9.90;99.90
39021;DHT22;25188;51.958;5.842;2023-04-01T03:55:31;9.90;99.90
39021;DHT22;25188;51.958;5.842;2023-04-01T03:57:57;9.90;99.90
39021;DHT22;25188;51.958;5.842;2023-04-01T04:00:23;9.90;99.90
39021;DHT22;25188;51.958;5.842;2023-04-01T04:02:50;9.90;99.90
39021;DHT22;25188;51.958;5.842;2023-04-01T04:05:16;9.80;99.90
39021;DHT22;25188;51.958;5.842;2023-04-01T04:07:42;9.80;99.90
39021;DHT22;25188;51.958;5.842;2023-04-01T04:10:08;9.80;99.90
39021;DHT22;25188;51.958;5.842;2023-04-01T04:12:33;9.80;99.90
39021;DHT22;25188;51.958;5.842;2023-04-01T04:14:59;9.80;99.90
39021;DHT22;25188;51.958;5.842;2023-04-01T04:17:24;9.80;99.90
39021;DHT22;25188;51.958;5.842;2023-04-01T04:19:50;9.90;99.90
39021;DHT22;25188;51.958;5.842;2023-04-01T04:22:16;9.80;99.90
39021;DHT22;25188;51.958;5.842;2023-04-01T04:24:41;9.80;99.90
39021;DHT22;25188;51.958;5.842;2023-04-01T04:27:07;9.80;99.90
39021;DHT22;25188;51.958;5.842;2023-04-01T04:29:32;9.80;99.90
39021;DHT22;25188;51.958;5.842;2023-04-01T04:31:58;9.80;99.90
39021;DHT22;25188;51.958;5.842;2023-04-01T04:34:24;9.80;99.90
39021;DHT22;25188;51.958;5.842;2023-04-01T04:36:49;9.80;99.90
39021;DHT22;25188;51.958;5.842;2023-04-01T04:39:15;9.80;99.90
39021;DHT22;25188;51.958;5.842;2023-04-01T04:41:41;9.80;99.90
39021;DHT22;25188;51.958;5.842;2023-04-01T04:44:07;9.80;99.90
39021;DHT22;25188;51.958;5.842;2023-04-01T04:46:33;9.80;99.90
39021;DHT22;25188;51.958;5.842;2023-04-01T04:48:59;9.80;99.90
39021;DHT22;25188;51.958;5.842;2023-04-01T04:51:25;9.80;99.90
39021;DHT22;25188;51.958;5.842;2023-04-01T04:53:51;9.70;99.90
39021;DHT22;25188;51.958;5.842;2023-04-01T04:56:21;9.70;99.90
39021;DHT22;25188;51.958;5.842;2023-04-01T04:58:48;9.70;99.90
39021;DHT22;25188;51.958;5.842;2023-04-01T05:01:15;9.70;99.90
39021;DHT22;25188;51.958;5.842;2023-04-01T05:03:41;9.70;99.90
39021;DHT22;25188;51.958;5.842;2023-04-01T05:06:09;9.70;99.90
39021;DHT22;25188;51.958;5.842;2023-04-01T05:08:36;9.70;99.90
39021;DHT22;25188;51.958;5.842;2023-04-01T05:11:03;9.70;99.90
39021;DHT22;25188;51.958;5.842;2023-04-01T05:13:29;9.70;99.90
39021;DHT22;25188;51.958;5.842;2023-04-01T05:15:55;9.70;99.90
39021;DHT22;25188;51.958;5.842;2023-04-01T05:18:21;9.70;99.90
39021;DHT22;25188;51.958;5.842;2023-04-01T05:20:49;9.70;99.90
39021;DHT22;25188;51.958;5.842;2023-04-01T05:23:15;9.70;99.90
39021;DHT22;25188;51.958;5.842;2023-04-01T05:25:40;9.70;99.90
39021;DHT22;25188;51.958;5.842;2023-04-01T05:28:06;9.70;99.90
39021;DHT22;25188;51.958;5.842;2023-04-01T05:30:32;9.70;99.90
39021;DHT22;25188;51.958;5.842;2023-04-01T05:32:57;9.70;99.90
39021;DHT22;25188;51.958;5.842;2023-04-01T05:35:23;9.80;99.90
39021;DHT22;25188;51.958;5.842;2023-04-01T05:37:49;9.80;99.90
39021;DHT22;25188;51.958;5.842;2023-04-01T05:40:15;9.80;99.90
39021;DHT22;25188;51.958;5.842;2023-04-01T05:42:40;9.80;99.90
39021;DHT22;25188;51.958;5.842;2023-04-01T05:45:07;9.80;99.90
39021;DHT22;25188;51.958;5.842;2023-04-01T05:47:33;9.80;99.90
39021;DHT22;25188;51.958;5.842;2023-04-01T05:49:58;9.80;99.90
39021;DHT22;25188;51.958;5.842;2023-04-01T05:52:24;9.80;99.90
39021;DHT22;25188;51.958;5.842;2023-04-01T05:54:49;9.90;99.90
39021;DHT22;25188;51.958;5.842;2023-04-01T05:57:15;9.90;99.90
39021;DHT22;25188;51.958;5.842;2023-04-01T05:59:41;9.90;99.90
39021;DHT22;25188;51.958;5.842;2023-04-01T06:02:08;9.90;99.90
39021;DHT22;25188;51.958;5.842;2023-04-01T06:04:38;10.00;99.90
39021;DHT22;25188;51.958;5.842;2023-04-01T06:07:18;9.90;99.90
39021;DHT22;25188;51.958;5.842;2023-04-01T06:09:44;10.00;99.90
39021;DHT22;25188;51.958;5.842;2023-04-01T06:25:43;10.10;99.90
39021;DHT22;25188;51.958;5.842;2023-04-01T06:39:53;10.20;99.90
39021;DHT22;25188;51.958;5.842;2023-04-01T06:55:45;10.30;99.90
39021;DHT22;25188;51.958;5.842;2023-04-01T06:58:27;10.30;99.90
39021;DHT22;25188;51.958;5.842;2023-04-01T07:00:58;10.40;99.90
39021;DHT22;25188;51.958;5.842;2023-04-01T07:03:36;10.40;99.90
39021;DHT22;25188;51.958;5.842;2023-04-01T07:06:31;10.50;99.90
39021;DHT22;25188;51.958;5.842;2023-04-01T07:08:55;10.50;99.90
39021;DHT22;25188;51.958;5.842;2023-04-01T07:11:31;10.50;99.90
39021;DHT22;25188;51.958;5.842;2023-04-01T07:14:19;10.50;99.90
39021;DHT22;25188;51.958;5.842;2023-04-01T07:20:05;10.50;99.90
39021;DHT22;25188;51.958;5.842;2023-04-01T07:22:40;10.50;99.90
39021;DHT22;25188;51.958;5.842;2023-04-01T07:25:27;10.50;99.90
39021;DHT22;25188;51.958;5.842;2023-04-01T07:28:04;10.50;99.90
39021;DHT22;25188;51.958;5.842;2023-04-01T07:36:48;10.60;99.90
39021;DHT22;25188;51.958;5.842;2023-04-01T07:42:09;10.60;99.90
39021;DHT22;25188;51.958;5.842;2023-04-01T07:58:18;10.70;99.90
39021;DHT22;25188;51.958;5.842;2023-04-01T08:03:16;10.80;99.90
39021;DHT22;25188;51.958;5.842;2023-04-01T08:06:26;10.80;99.90
39021;DHT22;25188;51.958;5.842;2023-04-01T08:09:26;10.80;99.90
39021;DHT22;25188;51.958;5.842;2023-04-01T08:26:35;10.90;99.90
39021;DHT22;25188;51.958;5.842;2023-04-01T08:29:18;10.90;99.90
39021;DHT22;25188;51.958;5.842;2023-04-01T08:32:00;11.00;99.90
39021;DHT22;25188;51.958;5.842;2023-04-01T08:34:38;10.90;99.90
39021;DHT22;25188;51.958;5.842;2023-04-01T08:37:09;10.90;99.90
39021;DHT22;25188;51.958;5.842;2023-04-01T08:39:50;11.00;99.90
39021;DHT22;25188;51.958;5.842;2023-04-01T08:58:42;11.10;99.90
39021;DHT22;25188;51.958;5.842;2023-04-01T09:01:24;11.20;99.90
39021;DHT22;25188;51.958;5.842;2023-04-01T09:06:56;11.20;99.90
39021;DHT22;25188;51.958;5.842;2023-04-01T09:14:57;11.30;99.90
39021;DHT22;25188;51.958;5.842;2023-04-01T09:25:55;11.30;99.90
39021;DHT22;25188;51.958;5.842;2023-04-01T09:35:22;11.20;99.90
39021;DHT22;25188;51.958;5.842;2023-04-01T09:46:14;11.30;99.90
39021;DHT22;25188;51.958;5.842;2023-04-01T09:54:40;11.40;99.90
39021;DHT22;25188;51.958;5.842;2023-04-01T10:11:45;11.30;99.90
39021;DHT22;25188;51.958;5.842;2023-04-01T10:48:12;11.80;99.90
39021;DHT22;25188;51.958;5.842;2023-04-01T10:50:54;11.90;99.90
39021;DHT22;25188;51.958;5.842;2023-04-01T11:01:36;12.30;99.90
39021;DHT22;25188;51.958;5.842;2023-04-01T11:04:44;12.40;99.90
39021;DHT22;25188;51.958;5.842;2023-04-01T11:11:22;12.40;99.90
39021;DHT22;25188;51.958;5.842;2023-04-01T11:34:01;12.50;99.90
39021;DHT22;25188;51.958;5.842;2023-04-01T11:36:59;12.50;99.90
39021;DHT22;25188;51.958;5.842;2023-04-01T11:40:12;12.50;99.90
39021;DHT22;25188;51.958;5.842;2023-04-01T11:45:37;12.80;99.90
39021;DHT22;25188;51.958;5.842;2023-04-01T11:48:12;12.90;99.90
39021;DHT22;25188;51.958;5.842;2023-04-01T11:53:36;13.00;99.90
39021;DHT22;25188;51.958;5.842;2023-04-01T11:56:32;13.10;99.90
39021;DHT22;25188;51.958;5.842;2023-04-01T12:05:04;13.00;99.90
39021;DHT22;25188;51.958;5.842;2023-04-01T12:07:59;12.90;99.90
39021;DHT22;25188;51.958;5.842;2023-04-01T12:11:22;12.80;99.90
39021;DHT22;25188;51.958;5.842;2023-04-01T12:13:40;12.80;99.90
39021;DHT22;25188;51.958;5.842;2023-04-01T12:41:09;12.10;99.90
39021;DHT22;25188;51.958;5.842;2023-04-01T12:43:49;12.10;99.90
39021;DHT22;25188;51.958;5.842;2023-04-01T12:46:42;12.00;99.90
39021;DHT22;25188;51.958;5.842;2023-04-01T13:00:43;11.80;99.90
39021;DHT22;25188;51.958;5.842;2023-04-01T13:08:43;11.80;99.90
39021;DHT22;25188;51.958;5.842;2023-04-01T13:16:39;11.90;99.90
39021;DHT22;25188;51.958;5.842;2023-04-01T13:19:31;11.90;99.90
39021;DHT22;25188;51.958;5.842;2023-04-01T13:22:05;12.00;99.90
39021;DHT22;25188;51.958;5.842;2023-04-01T13:30:04;12.00;99.90
39021;DHT22;25188;51.958;5.842;2023-04-01T13:32:42;12.10;99.90
39021;DHT22;25188;51.958;5.842;2023-04-01T13:43:39;12.30;99.90
39021;DHT22;25188;51.958;5.842;2023-04-01T14:00:32;12.90;99.90
39021;DHT22;25188;51.958;5.842;2023-04-01T14:06:31;13.10;99.90
39021;DHT22;25188;51.958;5.842;2023-04-01T14:17:39;13.10;99.90
39021;DHT22;25188;51.958;5.842;2023-04-01T14:26:11;12.90;99.90
39021;DHT22;25188;51.958;5.842;2023-04-01T14:31:31;12.90;99.90
39021;DHT22;25188;51.958;5.842;2023-04-01T14:51:02;13.00;99.90
39021;DHT22;25188;51.958;5.842;2023-04-01T14:53:31;13.00;99.90
39021;DHT22;25188;51.958;5.842;2023-04-01T14:56:01;13.10;99.90
39021;DHT22;25188;51.958;5.842;2023-04-01T14:58:51;13.10;99.90
39021;DHT22;25188;51.958;5.842;2023-04-01T15:06:45;13.20;99.90
39021;DHT22;25188;51.958;5.842;2023-04-01T15:15:15;13.30;99.90
39021;DHT22;25188;51.958;5.842;2023-04-01T15:18:03;13.30;99.90
39021;DHT22;25188;51.958;5.842;2023-04-01T15:26:17;13.30;99.90
39021;DHT22;25188;51.958;5.842;2023-04-01T15:34:37;13.10;99.90
39021;DHT22;25188;51.958;5.842;2023-04-01T15:42:57;13.10;99.90
39021;DHT22;25188;51.958;5.842;2023-04-01T15:47:59;13.00;99.90
39021;DHT22;25188;51.958;5.842;2023-04-01T15:53:35;12.90;99.90
39021;DHT22;25188;51.958;5.842;2023-04-01T15:59:06;12.70;99.90
39021;DHT22;25188;51.958;5.842;2023-04-01T16:06:50;12.60;99.90
39021;DHT22;25188;51.958;5.842;2023-04-01T16:23:56;12.50;99.90
39021;DHT22;25188;51.958;5.842;2023-04-01T16:27:18;12.40;99.90
39021;DHT22;25188;51.958;5.842;2023-04-01T16:29:30;12.40;99.90
39021;DHT22;25188;51.958;5.842;2023-04-01T16:35:23;12.30;99.90
39021;DHT22;25188;51.958;5.842;2023-04-01T16:38:07;12.30;99.90
39021;DHT22;25188;51.958;5.842;2023-04-01T16:48:54;12.30;99.90
39021;DHT22;25188;51.958;5.842;2023-04-01T16:51:22;12.20;99.90
39021;DHT22;25188;51.958;5.842;2023-04-01T16:54:31;12.20;99.90
39021;DHT22;25188;51.958;5.842;2023-04-01T17:00:14;12.10;99.90
39021;DHT22;25188;51.958;5.842;2023-04-01T17:02:16;12.00;99.90
39021;DHT22;25188;51.958;5.842;2023-04-01T17:15:47;11.80;99.90
39021;DHT22;25188;51.958;5.842;2023-04-01T17:26:37;11.60;99.90
39021;DHT22;25188;51.958;5.842;2023-04-01T17:34:35;11.50;99.90
39021;DHT22;25188;51.958;5.842;2023-04-01T17:40:54;11.40;99.90
39021;DHT22;25188;51.958;5.842;2023-04-01T17:45:53;11.30;99.90
39021;DHT22;25188;51.958;5.842;2023-04-01T17:51:43;11.20;99.90
39021;DHT22;25188;51.958;5.842;2023-04-01T18:00:26;11.20;99.90
39021;DHT22;25188;51.958;5.842;2023-04-01T18:11:30;11.10;99.90
39021;DHT22;25188;51.958;5.842;2023-04-01T18:19:53;10.90;99.90
39021;DHT22;25188;51.958;5.842;2023-04-01T18:22:41;10.90;99.90
39021;DHT22;25188;51.958;5.842;2023-04-01T18:25:21;10.80;99.90
39021;DHT22;25188;51.958;5.842;2023-04-01T18:28:05;10.80;99.90
39021;DHT22;25188;51.958;5.842;2023-04-01T18:30:34;10.80;99.90
39021;DHT22;25188;51.958;5.842;2023-04-01T18:33:29;10.80;99.90
39021;DHT22;25188;51.958;5.842;2023-04-01T18:38:54;10.70;99.90
39021;DHT22;25188;51.958;5.842;2023-04-01T18:49:54;10.60;99.90
39021;DHT22;25188;51.958;5.842;2023-04-01T18:52:22;10.60;99.90
39021;DHT22;25188;51.958;5.842;2023-04-01T19:03:25;10.50;99.90
39021;DHT22;25188;51.958;5.842;2023-04-01T19:05:54;10.50;99.90
39021;DHT22;25188;51.958;5.842;2023-04-01T19:08:35;10.40;99.90
39021;DHT22;25188;51.958;5.842;2023-04-01T19:14:19;10.40;99.90
39021;DHT22;25188;51.958;5.842;2023-04-01T19:17:02;10.40;99.90
39021;DHT22;25188;51.958;5.842;2023-04-01T19:19:39;10.30;99.90
39021;DHT22;25188;51.958;5.842;2023-04-01T19:28:19;10.30;99.90
39021;DHT22;25188;51.958;5.842;2023-04-01T19:30:42;10.30;99.90
39021;DHT22;25188;51.958;5.842;2023-04-01T19:34:03;10.30;99.90
39021;DHT22;25188;51.958;5.842;2023-04-01T19:36:28;10.20;99.90
39021;DHT22;25188;51.958;5.842;2023-04-01T19:41:55;10.20;99.90
39021;DHT22;25188;51.958;5.842;2023-04-01T19:53:36;10.00;99.90
39021;DHT22;25188;51.958;5.842;2023-04-01T19:56:21;10.00;99.90
39021;DHT22;25188;51.958;5.842;2023-04-01T20:04:44;9.90;99.90
39021;DHT22;25188;51.958;5.842;2023-04-01T20:10:09;9.80;99.90
39021;DHT22;25188;51.958;5.842;2023-04-01T20:15:34;9.70;99.90
39021;DHT22;25188;51.958;5.842;2023-04-01T20:18:03;9.70;99.90
39021;DHT22;25188;51.958;5.842;2023-04-01T20:20:31;9.60;99.90
39021;DHT22;25188;51.958;5.842;2023-04-01T20:23:06;9.50;99.90
39021;DHT22;25188;51.958;5.842;2023-04-01T20:25:58;9.50;99.90
39021;DHT22;25188;51.958;5.842;2023-04-01T20:29:23;9.50;99.90
39021;DHT22;25188;51.958;5.842;2023-04-01T20:31:26;9.50;99.90
39021;DHT22;25188;51.958;5.842;2023-04-01T20:34:15;9.50;99.90
39021;DHT22;25188;51.958;5.842;2023-04-01T20:36:54;9.40;99.90
39021;DHT22;25188;51.958;5.842;2023-04-01T20:50:48;9.40;99.90
39021;DHT22;25188;51.958;5.842;2023-04-01T20:53:36;9.30;99.90
39021;DHT22;25188;51.958;5.842;2023-04-01T20:59:12;9.20;99.90
39021;DHT22;25188;51.958;5.842;2023-04-01T21:01:54;9.20;99.90
39021;DHT22;25188;51.958;5.842;2023-04-01T21:04:30;9.20;99.90
39021;DHT22;25188;51.958;5.842;2023-04-01T21:07:41;9.20;99.90
39021;DHT22;25188;51.958;5.842;2023-04-01T21:10:29;9.10;99.90
39021;DHT22;25188;51.958;5.842;2023-04-01T21:18:45;9.10;99.90
39021;DHT22;25188;51.958;5.842;2023-04-01T21:56:37;8.90;99.90
39021;DHT22;25188;51.958;5.842;2023-04-01T22:07:17;8.80;99.90
39021;DHT22;25188;51.958;5.842;2023-04-01T22:12:38;8.80;99.90
39021;DHT22;25188;51.958;5.842;2023-04-01T22:18:21;8.80;99.90
39021;DHT22;25188;51.958;5.842;2023-04-01T22:21:11;8.80;99.90
39021;DHT22;25188;51.958;5.842;2023-04-01T22:27:00;8.70;99.90
39021;DHT22;25188;51.958;5.842;2023-04-01T22:32:25;8.70;99.90
39021;DHT22;25188;51.958;5.842;2023-04-01T22:37:40;8.70;99.90
39021;DHT22;25188;51.958;5.842;2023-04-01T22:49:05;8.50;99.90
39021;DHT22;25188;51.958;5.842;2023-04-01T22:51:45;8.50;99.90
39021;DHT22;25188;51.958;5.842;2023-04-01T22:54:33;8.50;99.90
39021;DHT22;25188;51.958;5.842;2023-04-01T22:57:37;8.50;99.90
39021;DHT22;25188;51.958;5.842;2023-04-01T23:00:12;8.40;99.90
39021;DHT22;25188;51.958;5.842;2023-04-01T23:05:30;8.40;99.90
39021;DHT22;25188;51.958;5.842;2023-04-01T23:10:59;8.30;99.90
39021;DHT22;25188;51.958;5.842;2023-04-01T23:13:57;8.30;99.90
39021;DHT22;25188;51.958;5.842;2023-04-01T23:16:37;8.30;99.90
39021;DHT22;25188;51.958;5.842;2023-04-01T23:19:19;8.40;99.90
39021;DHT22;25188;51.958;5.842;2023-04-01T23:21:58;8.30;99.90
39021;DHT22;25188;51.958;5.842;2023-04-01T23:27:24;8.30;99.90
39021;DHT22;25188;51.958;5.842;2023-04-01T23:29:53;8.30;99.90
39021;DHT22;25188;51.958;5.842;2023-04-01T23:32:19;8.30;99.90
39021;DHT22;25188;51.958;5.842;2023-04-01T23:34:52;8.30;99.90
39021;DHT22;25188;51.958;5.842;2023-04-01T23:37:20;8.30;99.90
39021;DHT22;25188;51.958;5.842;2023-04-01T23:39:50;8.30;99.90
39021;DHT22;25188;51.958;5.842;2023-04-01T23:42:30;8.30;99.90
39021;DHT22;25188;51.958;5.842;2023-04-01T23:45:05;8.30;99.90
39021;DHT22;25188;51.958;5.842;2023-04-01T23:47:39;8.30;99.90
39021;DHT22;25188;51.958;5.842;2023-04-01T23:50:18;8.30;99.90
39021;DHT22;25188;51.958;5.842;2023-04-01T23:52:53;8.20;99.90
39021;DHT22;25188;51.958;5.842;2023-04-01T23:55:47;8.30;99.90
